Aeroporto :
LOGIN :

Iscrizione | Disclaimer

   EN    FR    IT 

 










Sommario :    VFR   VFR Marginale   IFR   IFR Intensivo   IFR Molto Intensivo
Visibilità : 
Base nubi : 
>= 8 km
>= 3000ft
5 / 8 km
1000 / 3000 ft
1500m / 5 km
500 / 1000 ft
800 / 1500m
200 / 500 ft
< 800m
< 200 ft
Simboli :   Temporali  Nebbia  Neve Forte  Precipitazioni Forti  Vento > 20 kt
SIGMETs :   Varie  Temporali  Ghiacco  Turbolenza  Onda orograficha  Ceneri Vulcaniche






- Altitudine del aeroporto : 622 ft
- Codice IATA : BRS


EGGD - Bristol Int.

ULTIMO METAR :
  • 200620Z AUTO 26005KT 9999 NCD 02/00 Q1048

METARs OBSOLETI :
  • 200550Z AUTO 25005KT 9999 NCD 02/00 Q1048
  • 200520Z AUTO 25004KT 9999 NCD 02/01 Q1048
  • 200450Z AUTO 26006KT 9999 NCD 01/00 Q1048
  • 200420Z AUTO 26006KT 9999 NCD 02/00 Q1048
  • 200350Z AUTO 26004KT 9999 NCD 01/M00 Q1048

TAF TAF EGGD
Valido dal 20 a 06 ore il 21 a 06 ore UTC


200500Z 2006/2106 28005KT CAVOK
TEMPO 2006/2010 9000
TEMPO 2102/2106 7000
ATIS : +44 1275 473 666



MetMap, La meteo Aeronautica in un colpo d'occhio ! - Copyright ORBIFLY Dicembre 2007 - Disclaimer

ORBIFLY MET'MAP TEAM :

Programmazione e sviluppo : Alexandra Zaïnal
Concezione : Baudouin d'Aumeries
Aiuto per la programmazione : Marc-Olivier Méhu
Supporto tecnico e logistico : Manuel Goepfert
Aiuto per la traduzione : Arnaldo La Scala

Contatto : metmap@orbifly.com




FONTI E CREDITI :

   NOAA